sensor_id;sensor_type;location;lat;lon;timestamp;pressure;altitude;pressure_sealevel;temperature;humidity
65557;BME280;52200;53.490;14.376;2022-11-06T00:02:07;101749.72;;;3.74;97.52
65557;BME280;52200;53.490;14.376;2022-11-06T00:04:32;101760.63;;;3.76;97.01
65557;BME280;52200;53.490;14.376;2022-11-06T00:06:58;101760.50;;;3.70;96.94
65557;BME280;52200;53.490;14.376;2022-11-06T00:09:23;101763.88;;;3.69;96.50
65557;BME280;52200;53.490;14.376;2022-11-06T00:11:49;101764.78;;;3.73;96.48
65557;BME280;52200;53.490;14.376;2022-11-06T00:14:16;101761.28;;;3.66;96.72
65557;BME280;52200;53.490;14.376;2022-11-06T00:16:42;101764.56;;;3.62;96.54
65557;BME280;52200;53.490;14.376;2022-11-06T00:19:09;101748.56;;;3.57;96.87
65557;BME280;52200;53.490;14.376;2022-11-06T00:21:35;101750.31;;;3.61;96.33
65557;BME280;52200;53.490;14.376;2022-11-06T00:24:02;101752.84;;;3.64;97.23
65557;BME280;52200;53.490;14.376;2022-11-06T00:26:30;101740.38;;;3.67;96.97
65557;BME280;52200;53.490;14.376;2022-11-06T00:28:56;101744.47;;;3.62;96.79
65557;BME280;52200;53.490;14.376;2022-11-06T00:31:25;101741.94;;;3.62;97.22
65557;BME280;52200;53.490;14.376;2022-11-06T00:33:52;101739.31;;;3.54;98.06
65557;BME280;52200;53.490;14.376;2022-11-06T00:36:20;101749.47;;;3.60;97.44
65557;BME280;52200;53.490;14.376;2022-11-06T00:38:45;101740.38;;;3.67;97.79
65557;BME280;52200;53.490;14.376;2022-11-06T00:41:14;101747.78;;;3.61;97.59
65557;BME280;52200;53.490;14.376;2022-11-06T00:43:40;101757.06;;;3.65;97.95
65557;BME280;52200;53.490;14.376;2022-11-06T00:46:11;101755.56;;;3.73;97.11
65557;BME280;52200;53.490;14.376;2022-11-06T00:48:38;101749.47;;;3.60;98.05
65557;BME280;52200;53.490;14.376;2022-11-06T00:51:13;101748.50;;;3.55;97.84
65557;BME280;52200;53.490;14.376;2022-11-06T00:53:39;101749.06;;;3.40;98.08
65557;BME280;52200;53.490;14.376;2022-11-06T00:56:16;101752.25;;;3.31;98.11
65557;BME280;52200;53.490;14.376;2022-11-06T00:58:43;101740.19;;;3.58;97.72
65557;BME280;52200;53.490;14.376;2022-11-06T01:01:20;101754.25;;;3.48;97.59
65557;BME280;52200;53.490;14.376;2022-11-06T01:03:50;101748.22;;;3.38;98.74
65557;BME280;52200;53.490;14.376;2022-11-06T01:06:18;101747.44;;;3.42;98.68
65557;BME280;52200;53.490;14.376;2022-11-06T01:08:45;101748.22;;;3.38;99.34
65557;BME280;52200;53.490;14.376;2022-11-06T01:11:32;101749.13;;;3.42;98.73
65557;BME280;52200;53.490;14.376;2022-11-06T01:13:59;101749.63;;;3.27;98.24
65557;BME280;52200;53.490;14.376;2022-11-06T01:16:26;101743.53;;;3.57;98.08
65557;BME280;52200;53.490;14.376;2022-11-06T01:18:53;101740.28;;;3.64;98.27
65557;BME280;52200;53.490;14.376;2022-11-06T01:21:27;101734.34;;;3.59;98.44
65557;BME280;52200;53.490;14.376;2022-11-06T01:23:56;101729.13;;;3.48;99.59
65557;BME280;52200;53.490;14.376;2022-11-06T01:26:22;101732.63;;;3.56;99.56
65557;BME280;52200;53.490;14.376;2022-11-06T01:28:48;101726.91;;;3.65;100.00
65557;BME280;52200;53.490;14.376;2022-11-06T01:31:17;101721.25;;;3.75;99.78
65557;BME280;52200;53.490;14.376;2022-11-06T01:33:43;101714.84;;;3.91;99.05
65557;BME280;52200;53.490;14.376;2022-11-06T01:36:10;101708.59;;;3.69;99.11
65557;BME280;52200;53.490;14.376;2022-11-06T01:38:38;101720.72;;;3.95;99.24
65557;BME280;52200;53.490;14.376;2022-11-06T01:41:04;101713.13;;;3.90;99.07
65557;BME280;52200;53.490;14.376;2022-11-06T01:43:48;101710.69;;;3.95;99.11
65557;BME280;52200;53.490;14.376;2022-11-06T01:46:15;101706.19;;;3.75;99.83
65557;BME280;52200;53.490;14.376;2022-11-06T01:48:45;101696.97;;;3.77;100.00
65557;BME280;52200;53.490;14.376;2022-11-06T01:51:13;101696.72;;;3.62;100.00
65557;BME280;52200;53.490;14.376;2022-11-06T01:53:39;101694.31;;;3.66;100.00
65557;BME280;52200;53.490;14.376;2022-11-06T01:56:08;101697.09;;;3.83;100.00
65557;BME280;52200;53.490;14.376;2022-11-06T01:58:37;101697.34;;;3.99;100.00
65557;BME280;52200;53.490;14.376;2022-11-06T02:01:05;101695.66;;;3.98;100.00
65557;BME280;52200;53.490;14.376;2022-11-06T02:03:31;101692.25;;;3.94;100.00
65557;BME280;52200;53.490;14.376;2022-11-06T02:05:56;101694.13;;;4.08;100.00
65557;BME280;52200;53.490;14.376;2022-11-06T02:08:22;101690.72;;;4.04;100.00
65557;BME280;52200;53.490;14.376;2022-11-06T02:10:48;101696.56;;;4.03;100.00
65557;BME280;52200;53.490;14.376;2022-11-06T02:13:31;101690.69;;;4.01;100.00
65557;BME280;52200;53.490;14.376;2022-11-06T02:24:12;101673.81;;;3.94;100.00
65557;BME280;52200;53.490;14.376;2022-11-06T02:26:55;101667.75;;;3.82;100.00
65557;BME280;52200;53.490;14.376;2022-11-06T02:29:41;101661.44;;;3.55;100.00
65557;BME280;52200;53.490;14.376;2022-11-06T02:32:15;101667.63;;;3.75;100.00
65557;BME280;52200;53.490;14.376;2022-11-06T02:34:43;101655.06;;;3.75;100.00
65557;BME280;52200;53.490;14.376;2022-11-06T02:37:15;101658.38;;;3.74;100.00
65557;BME280;52200;53.490;14.376;2022-11-06T02:39:44;101654.09;;;3.66;100.00
65557;BME280;52200;53.490;14.376;2022-11-06T02:42:14;101658.38;;;3.74;100.00
65557;BME280;52200;53.490;14.376;2022-11-06T02:44:41;101655.66;;;3.60;100.00
65557;BME280;52200;53.490;14.376;2022-11-06T02:47:09;101649.69;;;3.54;100.00
65557;BME280;52200;53.490;14.376;2022-11-06T02:50:05;101651.41;;;3.55;100.00
65557;BME280;52200;53.490;14.376;2022-11-06T02:52:36;101646.78;;;3.31;100.00
65557;BME280;52200;53.490;14.376;2022-11-06T02:55:17;101650.41;;;3.47;100.00
65557;BME280;52200;53.490;14.376;2022-11-06T02:57:51;101650.88;;;3.28;100.00
65557;BME280;52200;53.490;14.376;2022-11-06T03:00:19;101651.69;;;3.27;100.00
65557;BME280;52200;53.490;14.376;2022-11-06T03:02:57;101649.41;;;3.39;100.00
65557;BME280;52200;53.490;14.376;2022-11-06T03:05:31;101639.59;;;3.51;100.00
65557;BME280;52200;53.490;14.376;2022-11-06T03:08:09;101645.34;;;3.44;100.00
65557;BME280;52200;53.490;14.376;2022-11-06T03:11:18;101640.84;;;3.28;100.00
65557;BME280;52200;53.490;14.376;2022-11-06T03:13:55;101646.06;;;3.37;100.00
65557;BME280;52200;53.490;14.376;2022-11-06T03:22:06;101632.81;;;3.47;100.00
65557;BME280;52200;53.490;14.376;2022-11-06T03:24:41;101634.09;;;3.25;100.00
65557;BME280;52200;53.490;14.376;2022-11-06T03:27:22;101638.44;;;3.34;100.00
65557;BME280;52200;53.490;14.376;2022-11-06T03:29:58;101644.38;;;3.39;100.00
65557;BME280;52200;53.490;14.376;2022-11-06T03:32:30;101639.31;;;3.36;100.00
65557;BME280;52200;53.490;14.376;2022-11-06T03:34:59;101635.34;;;3.49;100.00
65557;BME280;52200;53.490;14.376;2022-11-06T03:37:31;101636.25;;;3.51;100.00
65557;BME280;52200;53.490;14.376;2022-11-06T03:40:02;101627.59;;;3.36;100.00
65557;BME280;52200;53.490;14.376;2022-11-06T03:42:29;101633.50;;;3.37;100.00
65557;BME280;52200;53.490;14.376;2022-11-06T03:44:59;101641.34;;;3.55;100.00
65557;BME280;52200;53.490;14.376;2022-11-06T03:47:36;101629.75;;;3.64;100.00
65557;BME280;52200;53.490;14.376;2022-11-06T03:50:27;101639.03;;;3.20;100.00
65557;BME280;52200;53.490;14.376;2022-11-06T03:52:59;101641.75;;;3.31;100.00
65557;BME280;52200;53.490;14.376;2022-11-06T03:55:31;101643.56;;;3.40;100.00
65557;BME280;52200;53.490;14.376;2022-11-06T03:58:31;101637.97;;;3.55;100.00
65557;BME280;52200;53.490;14.376;2022-11-06T04:01:01;101637.88;;;3.49;100.00
65557;BME280;52200;53.490;14.376;2022-11-06T04:04:21;101641.75;;;3.31;100.00
65557;BME280;52200;53.490;14.376;2022-11-06T04:07:02;101646.84;;;3.34;100.00
65557;BME280;52200;53.490;14.376;2022-11-06T04:09:32;101635.56;;;3.14;100.00
65557;BME280;52200;53.490;14.376;2022-11-06T04:12:32;101633.66;;;3.02;100.00
65557;BME280;52200;53.490;14.376;2022-11-06T04:15:19;101629.56;;;3.05;100.00
65557;BME280;52200;53.490;14.376;2022-11-06T04:17:45;101620.84;;;2.86;100.00
65557;BME280;52200;53.490;14.376;2022-11-06T04:20:18;101618.44;;;2.93;100.00
65557;BME280;52200;53.490;14.376;2022-11-06T04:23:19;101620.25;;;3.00;100.00
65557;BME280;52200;53.490;14.376;2022-11-06T04:26:05;101625.97;;;2.93;100.00
65557;BME280;52200;53.490;14.376;2022-11-06T04:29:19;101621.06;;;2.99;100.00
65557;BME280;52200;53.490;14.376;2022-11-06T04:32:10;101615.56;;;3.17;100.00
65557;BME280;52200;53.490;14.376;2022-11-06T04:34:44;101615.44;;;3.11;100.00
65557;BME280;52200;53.490;14.376;2022-11-06T04:39:51;101620.94;;;2.91;100.00
65557;BME280;52200;53.490;14.376;2022-11-06T04:42:40;101625.88;;;2.88;100.00
65557;BME280;52200;53.490;14.376;2022-11-06T04:45:16;101627.09;;;3.07;100.00
65557;BME280;52200;53.490;14.376;2022-11-06T04:47:44;101632.78;;;2.98;100.00
65557;BME280;52200;53.490;14.376;2022-11-06T04:50:12;101633.41;;;2.88;100.00
65557;BME280;52200;53.490;14.376;2022-11-06T04:52:39;101630.03;;;2.86;100.00
65557;BME280;52200;53.490;14.376;2022-11-06T04:55:06;101632.16;;;3.10;100.00
65557;BME280;52200;53.490;14.376;2022-11-06T04:57:31;101643.78;;;3.05;100.00
65557;BME280;52200;53.490;14.376;2022-11-06T04:59:57;101637.06;;;3.04;100.00
65557;BME280;52200;53.490;14.376;2022-11-06T05:02:22;101635.47;;;3.09;100.00
65557;BME280;52200;53.490;14.376;2022-11-06T05:04:48;101627.03;;;3.04;100.00
65557;BME280;52200;53.490;14.376;2022-11-06T05:07:14;101627.13;;;3.10;100.00
65557;BME280;52200;53.490;14.376;2022-11-06T05:09:40;101623.81;;;3.11;100.00
65557;BME280;52200;53.490;14.376;2022-11-06T05:12:06;101620.84;;;3.32;100.00
65557;BME280;52200;53.490;14.376;2022-11-06T05:14:31;101613.38;;;3.35;100.00
65557;BME280;52200;53.490;14.376;2022-11-06T05:16:58;101614.03;;;3.27;100.00
65557;BME280;52200;53.490;14.376;2022-11-06T05:19:23;101610.94;;;3.40;100.00
65557;BME280;52200;53.490;14.376;2022-11-06T05:21:49;101619.84;;;3.24;100.00
65557;BME280;52200;53.490;14.376;2022-11-06T05:24:33;101620.75;;;3.28;100.00
65557;BME280;52200;53.490;14.376;2022-11-06T05:26:58;101610.44;;;3.12;100.00
65557;BME280;52200;53.490;14.376;2022-11-06T05:29:24;101606.25;;;3.13;100.00
65557;BME280;52200;53.490;14.376;2022-11-06T05:31:49;101602.66;;;2.98;100.00
65557;BME280;52200;53.490;14.376;2022-11-06T05:34:15;101588.25;;;2.89;100.00
65557;BME280;52200;53.490;14.376;2022-11-06T05:36:40;101596.56;;;2.85;100.00
65557;BME280;52200;53.490;14.376;2022-11-06T05:39:06;101600.06;;;2.94;100.00
65557;BME280;52200;53.490;14.376;2022-11-06T05:41:31;101601.53;;;2.82;100.00
65557;BME280;52200;53.490;14.376;2022-11-06T05:43:56;101599.94;;;2.86;100.00
65557;BME280;52200;53.490;14.376;2022-11-06T05:46:22;101611.56;;;2.82;100.00
65557;BME280;52200;53.490;14.376;2022-11-06T05:48:47;101610.22;;;3.00;100.00
65557;BME280;52200;53.490;14.376;2022-11-06T05:51:13;101603.44;;;2.96;100.00
65557;BME280;52200;53.490;14.376;2022-11-06T05:53:38;101609.91;;;2.84;100.00
65557;BME280;52200;53.490;14.376;2022-11-06T05:56:04;101609.22;;;2.92;100.00
65557;BME280;52200;53.490;14.376;2022-11-06T05:58:30;101604.88;;;2.84;100.00
65557;BME280;52200;53.490;14.376;2022-11-06T06:00:56;101599.06;;;2.85;100.00
65557;BME280;52200;53.490;14.376;2022-11-06T06:03:23;101602.09;;;2.69;100.00
65557;BME280;52200;53.490;14.376;2022-11-06T06:05:49;101592.91;;;2.71;100.00
65557;BME280;52200;53.490;14.376;2022-11-06T06:08:14;101599.28;;;2.55;100.00
65557;BME280;52200;53.490;14.376;2022-11-06T06:10:43;101601.59;;;2.44;100.00
65557;BME280;52200;53.490;14.376;2022-11-06T06:13:09;101606.69;;;2.49;100.00
65557;BME280;52200;53.490;14.376;2022-11-06T06:15:37;101610.19;;;2.57;100.00
65557;BME280;52200;53.490;14.376;2022-11-06T06:18:03;101612.59;;;2.52;100.00
65557;BME280;52200;53.490;14.376;2022-11-06T06:20:29;101614.88;;;2.81;100.00
65557;BME280;52200;53.490;14.376;2022-11-06T06:22:55;101605.13;;;2.54;100.00
65557;BME280;52200;53.490;14.376;2022-11-06T06:25:21;101607.22;;;2.73;100.00
65557;BME280;52200;53.490;14.376;2022-11-06T06:27:47;101602.50;;;2.90;100.00
65557;BME280;52200;53.490;14.376;2022-11-06T06:30:12;101598.47;;;2.56;100.00
65557;BME280;52200;53.490;14.376;2022-11-06T06:32:38;101596.88;;;2.60;100.00
65557;BME280;52200;53.490;14.376;2022-11-06T06:35:04;101606.09;;;2.61;100.00
65557;BME280;52200;53.490;14.376;2022-11-06T06:37:30;101601.31;;;2.73;100.00
65557;BME280;52200;53.490;14.376;2022-11-06T06:39:55;101597.06;;;2.69;100.00
65557;BME280;52200;53.490;14.376;2022-11-06T06:42:21;101599.59;;;2.70;100.00
65557;BME280;52200;53.490;14.376;2022-11-06T06:44:46;101604.47;;;2.63;100.00
65557;BME280;52200;53.490;14.376;2022-11-06T06:47:12;101610.44;;;2.68;100.00
65557;BME280;52200;53.490;14.376;2022-11-06T06:49:41;101595.31;;;2.65;100.00
65557;BME280;52200;53.490;14.376;2022-11-06T06:52:08;101601.53;;;2.82;100.00
65557;BME280;52200;53.490;14.376;2022-11-06T06:54:33;101608.16;;;2.80;100.00
65557;BME280;52200;53.490;14.376;2022-11-06T06:56:59;101614.81;;;2.78;100.00
65557;BME280;52200;53.490;14.376;2022-11-06T06:59:24;101621.72;;;2.88;100.00
65557;BME280;52200;53.490;14.376;2022-11-06T07:01:50;101632.00;;;3.01;100.00
65557;BME280;52200;53.490;14.376;2022-11-06T07:04:15;101627.81;;;3.01;100.00
65557;BME280;52200;53.490;14.376;2022-11-06T07:06:40;101633.84;;;3.10;100.00
65557;BME280;52200;53.490;14.376;2022-11-06T07:09:06;101640.69;;;3.18;100.00
65557;BME280;52200;53.490;14.376;2022-11-06T07:11:31;101635.00;;;3.29;100.00
65557;BME280;52200;53.490;14.376;2022-11-06T07:13:57;101633.38;;;3.29;100.00
65557;BME280;52200;53.490;14.376;2022-11-06T07:16:22;101635.91;;;3.32;100.00
65557;BME280;52200;53.490;14.376;2022-11-06T07:18:49;101635.94;;;3.34;100.00
65557;BME280;52200;53.490;14.376;2022-11-06T07:21:14;101638.53;;;3.38;100.00
65557;BME280;52200;53.490;14.376;2022-11-06T07:23:40;101634.53;;;3.48;100.00
65557;BME280;52200;53.490;14.376;2022-11-06T07:26:06;101633.00;;;3.57;100.00
65557;BME280;52200;53.490;14.376;2022-11-06T07:28:32;101639.91;;;3.70;100.00
65557;BME280;52200;53.490;14.376;2022-11-06T07:31:02;101632.78;;;3.96;100.00
65557;BME280;52200;53.490;14.376;2022-11-06T07:33:28;101634.34;;;3.88;100.00
65557;BME280;52200;53.490;14.376;2022-11-06T07:35:54;101631.09;;;3.94;100.00
65557;BME280;52200;53.490;14.376;2022-11-06T07:38:20;101628.47;;;3.87;100.00
65557;BME280;52200;53.490;14.376;2022-11-06T07:40:45;101621.84;;;3.94;100.00
65557;BME280;52200;53.490;14.376;2022-11-06T07:43:11;101624.72;;;4.16;100.00
65557;BME280;52200;53.490;14.376;2022-11-06T07:45:38;101629.22;;;4.40;100.00
65557;BME280;52200;53.490;14.376;2022-11-06T07:48:04;101623.66;;;4.64;100.00
65557;BME280;52200;53.490;14.376;2022-11-06T07:50:31;101626.56;;;4.97;100.00
65557;BME280;52200;53.490;14.376;2022-11-06T07:52:57;101625.88;;;5.10;100.00
65557;BME280;52200;53.490;14.376;2022-11-06T07:55:25;101610.88;;;5.23;100.00
65557;BME280;52200;53.490;14.376;2022-11-06T07:57:50;101614.16;;;5.14;100.00
65557;BME280;52200;53.490;14.376;2022-11-06T08:00:16;101614.16;;;5.17;100.00
65557;BME280;52200;53.490;14.376;2022-11-06T08:02:41;101621.75;;;5.19;100.00
65557;BME280;52200;53.490;14.376;2022-11-06T08:05:07;101619.44;;;5.40;100.00
65557;BME280;52200;53.490;14.376;2022-11-06T08:07:33;101617.13;;;5.65;100.00
65557;BME280;52200;53.490;14.376;2022-11-06T08:09:58;101618.78;;;5.63;100.00
65557;BME280;52200;53.490;14.376;2022-11-06T08:12:24;101616.31;;;5.64;100.00
65557;BME280;52200;53.490;14.376;2022-11-06T08:14:50;101610.53;;;5.82;100.00
65557;BME280;52200;53.490;14.376;2022-11-06T08:17:15;101618.16;;;5.87;99.43
65557;BME280;52200;53.490;14.376;2022-11-06T08:19:40;101605.44;;;5.73;98.53
65557;BME280;52200;53.490;14.376;2022-11-06T08:22:06;101600.34;;;5.67;99.03
65557;BME280;52200;53.490;14.376;2022-11-06T08:24:33;101597.94;;;5.79;98.53
65557;BME280;52200;53.490;14.376;2022-11-06T08:26:58;101600.47;;;5.82;98.78
65557;BME280;52200;53.490;14.376;2022-11-06T08:29:24;101596.34;;;5.95;97.36
65557;BME280;52200;53.490;14.376;2022-11-06T08:31:49;101592.31;;;6.21;97.34
65557;BME280;52200;53.490;14.376;2022-11-06T08:34:15;101600.78;;;6.27;97.39
65557;BME280;52200;53.490;14.376;2022-11-06T08:36:43;101601.69;;;6.42;96.45
65557;BME280;52200;53.490;14.376;2022-11-06T08:39:12;101602.56;;;6.50;96.66
65557;BME280;52200;53.490;14.376;2022-11-06T08:41:38;101611.84;;;6.60;95.88
65557;BME280;52200;53.490;14.376;2022-11-06T08:44:04;101611.00;;;6.55;96.04
65557;BME280;52200;53.490;14.376;2022-11-06T08:46:30;101602.66;;;6.69;95.38
65557;BME280;52200;53.490;14.376;2022-11-06T08:48:55;101597.59;;;6.70;95.08
65557;BME280;52200;53.490;14.376;2022-11-06T08:51:21;101592.56;;;6.76;95.51
65557;BME280;52200;53.490;14.376;2022-11-06T08:53:46;101592.59;;;6.89;94.29
65557;BME280;52200;53.490;14.376;2022-11-06T08:56:12;101586.75;;;7.02;94.46
65557;BME280;52200;53.490;14.376;2022-11-06T08:58:38;101586.66;;;6.73;94.80
65557;BME280;52200;53.490;14.376;2022-11-06T09:01:04;101593.41;;;6.78;95.24
65557;BME280;52200;53.490;14.376;2022-11-06T09:03:30;101587.53;;;6.83;94.19
65557;BME280;52200;53.490;14.376;2022-11-06T09:05:55;101596.00;;;7.03;93.40
65557;BME280;52200;53.490;14.376;2022-11-06T09:08:20;101581.72;;;7.33;92.36
65557;BME280;52200;53.490;14.376;2022-11-06T09:10:46;101589.31;;;7.30;92.96
65557;BME280;52200;53.490;14.376;2022-11-06T09:13:11;101584.25;;;7.52;91.56
65557;BME280;52200;53.490;14.376;2022-11-06T09:15:37;101581.72;;;7.46;91.03
65557;BME280;52200;53.490;14.376;2022-11-06T09:18:03;101576.69;;;7.46;90.91
65557;BME280;52200;53.490;14.376;2022-11-06T09:20:29;101581.75;;;7.50;91.21
65557;BME280;52200;53.490;14.376;2022-11-06T09:22:59;101582.56;;;7.38;90.93
65557;BME280;52200;53.490;14.376;2022-11-06T09:25:26;101578.34;;;7.54;91.05
65557;BME280;52200;53.490;14.376;2022-11-06T09:27:52;101564.03;;;7.58;90.89
65557;BME280;52200;53.490;14.376;2022-11-06T09:30:20;101569.94;;;7.55;90.27
65557;BME280;52200;53.490;14.376;2022-11-06T09:32:48;101567.38;;;7.52;90.78
65557;BME280;52200;53.490;14.376;2022-11-06T09:35:13;101569.06;;;7.70;89.76
65557;BME280;52200;53.490;14.376;2022-11-06T09:37:39;101578.31;;;7.98;90.31
65557;BME280;52200;53.490;14.376;2022-11-06T09:40:05;101577.44;;;8.10;88.81
65557;BME280;52200;53.490;14.376;2022-11-06T09:42:56;101567.34;;;8.03;87.65
65557;BME280;52200;53.490;14.376;2022-11-06T09:45:19;101573.28;;;7.90;89.61
65557;BME280;52200;53.490;14.376;2022-11-06T09:48:39;101564.78;;;8.06;88.00
65557;BME280;52200;53.490;14.376;2022-11-06T09:54:04;101564.78;;;8.20;89.00
65557;BME280;52200;53.490;14.376;2022-11-06T09:56:33;101560.50;;;8.24;87.94
65557;BME280;52200;53.490;14.376;2022-11-06T09:59:03;101559.72;;;8.20;88.93
65557;BME280;52200;53.490;14.376;2022-11-06T10:01:45;101552.06;;;8.34;88.71
65557;BME280;52200;53.490;14.376;2022-11-06T10:04:45;101558.88;;;8.17;88.61
65557;BME280;52200;53.490;14.376;2022-11-06T10:07:23;101554.56;;;8.45;87.08
65557;BME280;52200;53.490;14.376;2022-11-06T10:09:51;101547.00;;;8.31;88.84
65557;BME280;52200;53.490;14.376;2022-11-06T10:12:31;101546.19;;;8.15;87.95
65557;BME280;52200;53.490;14.376;2022-11-06T10:15:16;101552.94;;;8.16;88.03
65557;BME280;52200;53.490;14.376;2022-11-06T10:20:38;101545.31;;;8.29;87.77
65557;BME280;52200;53.490;14.376;2022-11-06T10:23:20;101530.13;;;8.30;87.70
65557;BME280;52200;53.490;14.376;2022-11-06T10:28:35;101540.13;;;8.64;86.71
65557;BME280;52200;53.490;14.376;2022-11-06T10:33:44;101527.47;;;8.60;87.91
65557;BME280;52200;53.490;14.376;2022-11-06T10:36:23;101528.34;;;8.57;87.47
65557;BME280;52200;53.490;14.376;2022-11-06T10:38:54;101526.63;;;8.65;86.86
65557;BME280;52200;53.490;14.376;2022-11-06T10:41:23;101524.97;;;8.58;87.48
65557;BME280;52200;53.490;14.376;2022-11-06T10:44:04;101521.56;;;8.62;87.15
65557;BME280;52200;53.490;14.376;2022-11-06T10:46:36;101513.94;;;8.62;87.19
65557;BME280;52200;53.490;14.376;2022-11-06T10:49:20;101523.16;;;8.79;87.07
65557;BME280;52200;53.490;14.376;2022-11-06T10:59:42;101503.81;;;8.65;86.85
65557;BME280;52200;53.490;14.376;2022-11-06T11:02:32;101506.31;;;8.68;86.81
65557;BME280;52200;53.490;14.376;2022-11-06T11:04:58;101505.44;;;8.71;85.09
65557;BME280;52200;53.490;14.376;2022-11-06T11:07:27;101503.75;;;8.73;85.36
65557;BME280;52200;53.490;14.376;2022-11-06T11:09:53;101507.19;;;8.69;86.46
65557;BME280;52200;53.490;14.376;2022-11-06T11:12:29;101505.44;;;8.74;86.25
65557;BME280;52200;53.490;14.376;2022-11-06T11:15:15;101492.75;;;8.76;85.42
65557;BME280;52200;53.490;14.376;2022-11-06T11:17:42;101487.72;;;8.73;85.40
65557;BME280;52200;53.490;14.376;2022-11-06T11:20:30;101478.31;;;8.90;85.54
65557;BME280;52200;53.490;14.376;2022-11-06T11:23:22;101472.41;;;8.91;85.14
65557;BME280;52200;53.490;14.376;2022-11-06T11:25:56;101480.03;;;8.86;86.41
65557;BME280;52200;53.490;14.376;2022-11-06T11:28:29;101485.81;;;9.02;85.33
65557;BME280;52200;53.490;14.376;2022-11-06T11:31:04;101489.16;;;9.08;85.67
65557;BME280;52200;53.490;14.376;2022-11-06T11:33:31;101492.50;;;9.13;84.32
65557;BME280;52200;53.490;14.376;2022-11-06T11:35:57;101491.53;;;9.29;84.36
65557;BME280;52200;53.490;14.376;2022-11-06T11:38:23;101482.00;;;9.53;83.69
65557;BME280;52200;53.490;14.376;2022-11-06T11:40:50;101474.31;;;9.58;83.26
65557;BME280;52200;53.490;14.376;2022-11-06T11:43:27;101476.91;;;9.53;83.34
65557;BME280;52200;53.490;14.376;2022-11-06T11:48:50;101467.97;;;9.16;84.54
65557;BME280;52200;53.490;14.376;2022-11-06T11:51:39;101463.78;;;9.11;84.96
65557;BME280;52200;53.490;14.376;2022-11-06T11:59:24;101443.34;;;9.29;84.85
65557;BME280;52200;53.490;14.376;2022-11-06T12:01:52;101445.06;;;9.26;84.23
65557;BME280;52200;53.490;14.376;2022-11-06T12:07:02;101448.31;;;9.42;84.06
65557;BME280;52200;53.490;14.376;2022-11-06T12:09:32;101443.09;;;9.54;84.79
65557;BME280;52200;53.490;14.376;2022-11-06T12:12:00;101443.19;;;9.43;83.73
65557;BME280;52200;53.490;14.376;2022-11-06T12:14:32;101442.50;;;9.27;85.33
65557;BME280;52200;53.490;14.376;2022-11-06T12:17:19;101434.91;;;9.27;84.24
65557;BME280;52200;53.490;14.376;2022-11-06T12:19:50;101431.47;;;9.31;83.90
65557;BME280;52200;53.490;14.376;2022-11-06T12:22:39;101442.31;;;9.46;83.07
65557;BME280;52200;53.490;14.376;2022-11-06T12:25:19;101438.97;;;9.42;83.76
65557;BME280;52200;53.490;14.376;2022-11-06T12:27:51;101438.22;;;9.32;84.32
65557;BME280;52200;53.490;14.376;2022-11-06T12:30:19;101426.44;;;9.28;84.74
65557;BME280;52200;53.490;14.376;2022-11-06T12:38:26;101443.94;;;9.51;85.70
65557;BME280;52200;53.490;14.376;2022-11-06T12:43:45;101432.97;;;9.51;84.88
65557;BME280;52200;53.490;14.376;2022-11-06T13:00:19;101424.56;;;9.46;84.45
65557;BME280;52200;53.490;14.376;2022-11-06T13:05:30;101409.97;;;9.65;83.96
65557;BME280;52200;53.490;14.376;2022-11-06T13:08:09;101405.03;;;9.56;83.78
65557;BME280;52200;53.490;14.376;2022-11-06T13:18:45;101396.09;;;9.22;84.89
65557;BME280;52200;53.490;14.376;2022-11-06T13:21:33;101385.13;;;9.17;85.64
65557;BME280;52200;53.490;14.376;2022-11-06T13:27:03;101399.50;;;9.16;84.45
65557;BME280;52200;53.490;14.376;2022-11-06T13:29:35;101387.72;;;9.14;84.92
65557;BME280;52200;53.490;14.376;2022-11-06T13:32:07;101381.06;;;9.00;85.26
65557;BME280;52200;53.490;14.376;2022-11-06T13:34:36;101383.53;;;9.08;85.32
65557;BME280;52200;53.490;14.376;2022-11-06T13:37:13;101388.50;;;9.19;85.20
65557;BME280;52200;53.490;14.376;2022-11-06T13:39:45;101385.91;;;9.25;84.92
65557;BME280;52200;53.490;14.376;2022-11-06T13:42:42;101380.56;;;9.50;83.58
65557;BME280;52200;53.490;14.376;2022-11-06T13:45:13;101378.91;;;9.46;83.25
65557;BME280;52200;53.490;14.376;2022-11-06T13:48:03;101388.38;;;9.31;84.15
65557;BME280;52200;53.490;14.376;2022-11-06T13:50:53;101378.19;;;9.36;84.38
65557;BME280;52200;53.490;14.376;2022-11-06T13:57:06;101378.53;;;9.00;84.75
65557;BME280;52200;53.490;14.376;2022-11-06T14:05:45;101371.03;;;8.90;85.53
65557;BME280;52200;53.490;14.376;2022-11-06T14:08:27;101379.41;;;9.01;85.28
65557;BME280;52200;53.490;14.376;2022-11-06T14:10:58;101381.91;;;9.02;85.56
65557;BME280;52200;53.490;14.376;2022-11-06T14:13:31;101382.88;;;8.89;85.38
65557;BME280;52200;53.490;14.376;2022-11-06T14:16:06;101386.97;;;9.04;85.26
65557;BME280;52200;53.490;14.376;2022-11-06T14:18:32;101385.31;;;8.98;85.18
65557;BME280;52200;53.490;14.376;2022-11-06T14:21:34;101387.16;;;8.81;86.23
65557;BME280;52200;53.490;14.376;2022-11-06T14:26:47;101382.94;;;8.83;86.79
65557;BME280;52200;53.490;14.376;2022-11-06T14:34:32;101376.06;;;8.94;85.70
65557;BME280;52200;53.490;14.376;2022-11-06T14:36:58;101377.03;;;8.82;85.97
65557;BME280;52200;53.490;14.376;2022-11-06T14:42:37;101373.69;;;8.79;85.74
65557;BME280;52200;53.490;14.376;2022-11-06T14:47:39;101356.97;;;8.59;87.07
65557;BME280;52200;53.490;14.376;2022-11-06T14:55:44;101346.03;;;8.54;87.15
65557;BME280;52200;53.490;14.376;2022-11-06T15:01:11;101340.31;;;8.22;88.32